sensor_id;sensor_type;location;lat;lon;timestamp;pressure;altitude;pressure_sealevel;temperature;humidity
50356;BME280;36264;51.296;-0.602;2023-04-07T00:02:28;101614.47;;;14.21;49.81
50356;BME280;36264;51.296;-0.602;2023-04-07T00:04:53;101607.66;;;14.17;49.67
50356;BME280;36264;51.296;-0.602;2023-04-07T00:07:18;101609.63;;;14.10;49.61
50356;BME280;36264;51.296;-0.602;2023-04-07T00:09:44;101615.88;;;14.04;49.36
50356;BME280;36264;51.296;-0.602;2023-04-07T00:12:09;101614.16;;;14.03;49.52
50356;BME280;36264;51.296;-0.602;2023-04-07T00:14:35;101616.03;;;14.00;49.40
50356;BME280;36264;51.296;-0.602;2023-04-07T00:17:00;101622.28;;;13.94;49.50
50356;BME280;36264;51.296;-0.602;2023-04-07T00:19:25;101625.94;;;13.88;49.65
50356;BME280;36264;51.296;-0.602;2023-04-07T00:21:51;101619.06;;;13.86;49.93
50356;BME280;36264;51.296;-0.602;2023-04-07T00:24:17;101620.78;;;13.26;51.82
50356;BME280;36264;51.296;-0.602;2023-04-07T00:26:43;101620.41;;;13.08;52.04
50356;BME280;36264;51.296;-0.602;2023-04-07T00:29:08;101621.31;;;13.07;52.33
50356;BME280;36264;51.296;-0.602;2023-04-07T00:31:33;101623.44;;;13.55;51.43
50356;BME280;36264;51.296;-0.602;2023-04-07T00:33:59;101633.66;;;13.63;50.91
50356;BME280;36264;51.296;-0.602;2023-04-07T00:36:24;101628.91;;;13.16;51.84
50356;BME280;36264;51.296;-0.602;2023-04-07T00:38:51;101630.97;;;13.03;52.26
50356;BME280;36264;51.296;-0.602;2023-04-07T00:41:16;101631.09;;;12.99;52.76
50356;BME280;36264;51.296;-0.602;2023-04-07T00:43:41;101626.03;;;12.94;52.97
50356;BME280;36264;51.296;-0.602;2023-04-07T00:46:07;101622.25;;;13.04;52.95
50356;BME280;36264;51.296;-0.602;2023-04-07T00:48:32;101626.13;;;12.90;54.14
50356;BME280;36264;51.296;-0.602;2023-04-07T00:50:58;101624.97;;;13.00;54.17
50356;BME280;36264;51.296;-0.602;2023-04-07T00:53:23;101618.03;;;12.99;53.85
50356;BME280;36264;51.296;-0.602;2023-04-07T00:55:49;101619.56;;;13.08;53.88
50356;BME280;36264;51.296;-0.602;2023-04-07T00:58:14;101622.00;;;13.14;54.02
50356;BME280;36264;51.296;-0.602;2023-04-07T01:00:56;101626.59;;;13.37;54.06
50356;BME280;36264;51.296;-0.602;2023-04-07T01:03:37;101630.66;;;13.47;53.79
50356;BME280;36264;51.296;-0.602;2023-04-07T01:06:05;101622.19;;;13.97;52.58
50356;BME280;36264;51.296;-0.602;2023-04-07T01:11:13;101619.38;;;13.75;52.97
50356;BME280;36264;51.296;-0.602;2023-04-07T01:13:52;101624.91;;;13.66;53.08
50356;BME280;36264;51.296;-0.602;2023-04-07T01:16:41;101620.56;;;13.65;53.30
50356;BME280;36264;51.296;-0.602;2023-04-07T01:21:48;101622.66;;;13.53;53.47
50356;BME280;36264;51.296;-0.602;2023-04-07T01:27:30;101623.31;;;13.60;53.58
50356;BME280;36264;51.296;-0.602;2023-04-07T01:30:02;101620.56;;;13.65;53.32
50356;BME280;36264;51.296;-0.602;2023-04-07T01:32:29;101621.31;;;13.38;53.93
50356;BME280;36264;51.296;-0.602;2023-04-07T01:34:56;101625.13;;;13.58;53.89
50356;BME280;36264;51.296;-0.602;2023-04-07T01:37:24;101627.25;;;13.73;53.29
50356;BME280;36264;51.296;-0.602;2023-04-07T01:39:51;101635.13;;;13.44;53.41
50356;BME280;36264;51.296;-0.602;2023-04-07T01:42:17;101636.31;;;13.62;53.27
50356;BME280;36264;51.296;-0.602;2023-04-07T01:44:44;101628.22;;;13.71;53.04
50356;BME280;36264;51.296;-0.602;2023-04-07T01:47:11;101626.06;;;13.55;53.44
50356;BME280;36264;51.296;-0.602;2023-04-07T01:49:37;101629.69;;;13.51;53.42
50356;BME280;36264;51.296;-0.602;2023-04-07T01:52:05;101630.84;;;13.71;53.04
50356;BME280;36264;51.296;-0.602;2023-04-07T01:54:31;101632.44;;;13.75;53.13
50356;BME280;36264;51.296;-0.602;2023-04-07T01:56:57;101636.75;;;13.46;53.19
50356;BME280;36264;51.296;-0.602;2023-04-07T01:59:22;101627.50;;;13.36;53.81
50356;BME280;36264;51.296;-0.602;2023-04-07T02:01:48;101634.31;;;13.40;53.59
50356;BME280;36264;51.296;-0.602;2023-04-07T02:04:21;101635.22;;;13.70;53.51
50356;BME280;36264;51.296;-0.602;2023-04-07T02:06:59;101639.09;;;13.55;53.55
50356;BME280;36264;51.296;-0.602;2023-04-07T02:09:27;101637.69;;;13.45;53.63
50356;BME280;36264;51.296;-0.602;2023-04-07T02:11:54;101636.66;;;13.18;54.28
50356;BME280;36264;51.296;-0.602;2023-04-07T02:14:21;101643.00;;;13.42;53.75
50356;BME280;36264;51.296;-0.602;2023-04-07T02:16:48;101638.22;;;13.25;53.76
50356;BME280;36264;51.296;-0.602;2023-04-07T02:19:15;101640.97;;;13.19;53.72
50356;BME280;36264;51.296;-0.602;2023-04-07T02:21:41;101631.13;;;13.29;53.92
50356;BME280;36264;51.296;-0.602;2023-04-07T02:24:06;101629.31;;;13.34;53.62
50356;BME280;36264;51.296;-0.602;2023-04-07T02:26:33;101630.66;;;13.47;53.48
50356;BME280;36264;51.296;-0.602;2023-04-07T02:28:59;101632.91;;;13.28;53.57
50356;BME280;36264;51.296;-0.602;2023-04-07T02:31:25;101636.56;;;13.21;53.68
50356;BME280;36264;51.296;-0.602;2023-04-07T02:33:50;101634.88;;;13.20;53.77
50356;BME280;36264;51.296;-0.602;2023-04-07T02:36:16;101635.56;;;13.27;53.71
50356;BME280;36264;51.296;-0.602;2023-04-07T02:38:41;101638.28;;;13.22;53.65
50356;BME280;36264;51.296;-0.602;2023-04-07T02:41:06;101640.63;;;13.33;53.43
50356;BME280;36264;51.296;-0.602;2023-04-07T02:43:32;101635.34;;;13.03;53.90
50356;BME280;36264;51.296;-0.602;2023-04-07T02:45:57;101645.03;;;12.98;54.09
50356;BME280;36264;51.296;-0.602;2023-04-07T02:48:22;101638.88;;;13.32;53.29
50356;BME280;36264;51.296;-0.602;2023-04-07T02:50:48;101643.78;;;14.04;51.35
50356;BME280;36264;51.296;-0.602;2023-04-07T02:53:13;101636.34;;;14.18;50.78
50356;BME280;36264;51.296;-0.602;2023-04-07T02:55:38;101641.44;;;14.23;50.42
50356;BME280;36264;51.296;-0.602;2023-04-07T02:58:04;101648.28;;;14.25;50.44
50356;BME280;36264;51.296;-0.602;2023-04-07T03:00:29;101642.38;;;14.20;50.14
50356;BME280;36264;51.296;-0.602;2023-04-07T03:02:55;101641.72;;;14.13;50.30
50356;BME280;36264;51.296;-0.602;2023-04-07T03:05:20;101638.34;;;14.10;50.39
50356;BME280;36264;51.296;-0.602;2023-04-07T03:07:46;101650.53;;;14.09;50.46
50356;BME280;36264;51.296;-0.602;2023-04-07T03:10:11;101657.59;;;14.07;50.25
50356;BME280;36264;51.296;-0.602;2023-04-07T03:12:36;101645.66;;;13.99;50.39
50356;BME280;36264;51.296;-0.602;2023-04-07T03:15:02;101648.41;;;13.94;49.95
50356;BME280;36264;51.296;-0.602;2023-04-07T03:17:27;101641.75;;;13.84;49.99
50356;BME280;36264;51.296;-0.602;2023-04-07T03:19:52;101651.63;;;13.11;51.90
50356;BME280;36264;51.296;-0.602;2023-04-07T03:22:18;101644.19;;;12.97;52.38
50356;BME280;36264;51.296;-0.602;2023-04-07T03:24:43;101643.41;;;12.94;52.24
50356;BME280;36264;51.296;-0.602;2023-04-07T03:27:08;101641.75;;;12.91;52.39
50356;BME280;36264;51.296;-0.602;2023-04-07T03:29:34;101649.69;;;13.51;50.93
50356;BME280;36264;51.296;-0.602;2023-04-07T03:31:59;101649.50;;;13.57;50.25
50356;BME280;36264;51.296;-0.602;2023-04-07T03:34:25;101652.56;;;13.41;50.29
50356;BME280;36264;51.296;-0.602;2023-04-07T03:36:50;101647.63;;;13.31;50.43
50356;BME280;36264;51.296;-0.602;2023-04-07T03:39:15;101655.19;;;13.40;50.26
50356;BME280;36264;51.296;-0.602;2023-04-07T03:41:41;101654.69;;;13.26;50.41
50356;BME280;36264;51.296;-0.602;2023-04-07T03:44:06;101657.41;;;13.22;50.68
50356;BME280;36264;51.296;-0.602;2023-04-07T03:46:31;101661.13;;;13.14;50.61
50356;BME280;36264;51.296;-0.602;2023-04-07T03:48:57;101666.09;;;13.23;50.40
50356;BME280;36264;51.296;-0.602;2023-04-07T03:51:22;101662.56;;;13.24;50.16
50356;BME280;36264;51.296;-0.602;2023-04-07T03:53:47;101665.31;;;13.19;50.10
50356;BME280;36264;51.296;-0.602;2023-04-07T03:56:13;101665.31;;;13.19;50.13
50356;BME280;36264;51.296;-0.602;2023-04-07T03:58:38;101665.47;;;13.15;49.79
50356;BME280;36264;51.296;-0.602;2023-04-07T04:01:06;101655.31;;;13.04;49.81
50356;BME280;36264;51.296;-0.602;2023-04-07T04:03:32;101661.53;;;12.98;49.93
50356;BME280;36264;51.296;-0.602;2023-04-07T04:05:57;101662.72;;;12.86;50.24
50356;BME280;36264;51.296;-0.602;2023-04-07T04:08:23;101657.44;;;12.90;49.86
50356;BME280;36264;51.296;-0.602;2023-04-07T04:10:48;101660.38;;;12.76;50.05
50356;BME280;36264;51.296;-0.602;2023-04-07T04:13:13;101663.72;;;12.81;49.77
50356;BME280;36264;51.296;-0.602;2023-04-07T04:15:39;101664.72;;;12.77;49.65
50356;BME280;36264;51.296;-0.602;2023-04-07T04:18:04;101657.81;;;12.74;49.87
50356;BME280;36264;51.296;-0.602;2023-04-07T04:20:29;101671.72;;;12.73;50.00
50356;BME280;36264;51.296;-0.602;2023-04-07T04:22:55;101668.25;;;12.74;49.94
50356;BME280;36264;51.296;-0.602;2023-04-07T04:25:20;101665.66;;;12.73;49.77
50356;BME280;36264;51.296;-0.602;2023-04-07T04:27:45;101674.84;;;12.53;49.88
50356;BME280;36264;51.296;-0.602;2023-04-07T04:30:14;101674.53;;;12.65;50.09
50356;BME280;36264;51.296;-0.602;2023-04-07T04:32:39;101677.84;;;12.36;50.06
50356;BME280;36264;51.296;-0.602;2023-04-07T04:35:05;101675.19;;;12.39;50.17
50356;BME280;36264;51.296;-0.602;2023-04-07T04:37:30;101682.25;;;12.34;50.15
50356;BME280;36264;51.296;-0.602;2023-04-07T04:39:56;101682.25;;;12.34;50.02
50356;BME280;36264;51.296;-0.602;2023-04-07T04:42:21;101682.00;;;12.43;49.80
50356;BME280;36264;51.296;-0.602;2023-04-07T04:44:47;101690.91;;;11.53;51.77
50356;BME280;36264;51.296;-0.602;2023-04-07T04:47:12;101690.88;;;11.55;51.79
50356;BME280;36264;51.296;-0.602;2023-04-07T04:49:38;101694.63;;;11.38;52.15
50356;BME280;36264;51.296;-0.602;2023-04-07T04:52:03;101693.81;;;11.36;52.41
50356;BME280;36264;51.296;-0.602;2023-04-07T04:54:29;101699.97;;;11.31;52.33
50356;BME280;36264;51.296;-0.602;2023-04-07T04:56:54;101715.59;;;11.31;52.27
50356;BME280;36264;51.296;-0.602;2023-04-07T04:59:21;101726.88;;;11.31;52.42
50356;BME280;36264;51.296;-0.602;2023-04-07T05:01:47;101727.69;;;11.33;52.40
50356;BME280;36264;51.296;-0.602;2023-04-07T05:04:12;101721.69;;;11.30;52.43
50356;BME280;36264;51.296;-0.602;2023-04-07T05:06:37;101728.63;;;11.29;52.21
50356;BME280;36264;51.296;-0.602;2023-04-07T05:09:03;101727.78;;;11.27;52.21
50356;BME280;36264;51.296;-0.602;2023-04-07T05:11:28;101729.53;;;11.27;52.13
50356;BME280;36264;51.296;-0.602;2023-04-07T05:13:54;101722.63;;;11.26;52.08
50356;BME280;36264;51.296;-0.602;2023-04-07T05:16:19;101735.72;;;11.19;52.20
50356;BME280;36264;51.296;-0.602;2023-04-07T05:18:45;101725.38;;;11.16;52.25
50356;BME280;36264;51.296;-0.602;2023-04-07T05:21:10;101739.22;;;11.18;52.33
50356;BME280;36264;51.296;-0.602;2023-04-07T05:23:36;101735.81;;;11.15;52.36
50356;BME280;36264;51.296;-0.602;2023-04-07T05:26:01;101734.09;;;11.15;52.51
50356;BME280;36264;51.296;-0.602;2023-04-07T05:28:26;101743.53;;;11.19;52.38
50356;BME280;36264;51.296;-0.602;2023-04-07T05:30:52;101746.13;;;11.19;52.35
50356;BME280;36264;51.296;-0.602;2023-04-07T05:33:17;101755.69;;;11.19;52.38
50356;BME280;36264;51.296;-0.602;2023-04-07T05:35:43;101751.16;;;11.30;52.40
50356;BME280;36264;51.296;-0.602;2023-04-07T05:38:10;101749.50;;;11.26;52.38
50356;BME280;36264;51.296;-0.602;2023-04-07T05:40:35;101756.94;;;11.46;52.00
50356;BME280;36264;51.296;-0.602;2023-04-07T05:43:01;101757.81;;;11.47;51.69
50356;BME280;36264;51.296;-0.602;2023-04-07T05:45:26;101762.06;;;11.49;51.87
50356;BME280;36264;51.296;-0.602;2023-04-07T05:47:52;101762.91;;;11.51;51.98
50356;BME280;36264;51.296;-0.602;2023-04-07T05:50:17;101768.94;;;11.53;51.91
50356;BME280;36264;51.296;-0.602;2023-04-07T05:52:42;101765.47;;;11.53;51.71
50356;BME280;36264;51.296;-0.602;2023-04-07T05:55:08;101769.91;;;11.48;52.33
50356;BME280;36264;51.296;-0.602;2023-04-07T05:57:35;101777.34;;;11.19;53.22
50356;BME280;36264;51.296;-0.602;2023-04-07T06:00:00;101771.38;;;11.14;53.39
50356;BME280;36264;51.296;-0.602;2023-04-07T06:02:26;101777.38;;;11.18;53.60
50356;BME280;36264;51.296;-0.602;2023-04-07T06:04:51;101769.53;;;11.19;53.71
50356;BME280;36264;51.296;-0.602;2023-04-07T06:07:16;101774.72;;;11.21;53.63
50356;BME280;36264;51.296;-0.602;2023-04-07T06:09:42;101779.88;;;11.22;53.80
50356;BME280;36264;51.296;-0.602;2023-04-07T06:12:08;101779.84;;;11.24;53.98
50356;BME280;36264;51.296;-0.602;2023-04-07T06:14:34;101775.50;;;11.26;53.75
50356;BME280;36264;51.296;-0.602;2023-04-07T06:17:00;101782.47;;;11.24;54.07
50356;BME280;36264;51.296;-0.602;2023-04-07T06:19:25;101781.47;;;11.31;54.05
50356;BME280;36264;51.296;-0.602;2023-04-07T06:21:52;101778.84;;;11.33;54.11
50356;BME280;36264;51.296;-0.602;2023-04-07T06:24:17;101781.44;;;11.34;53.79
50356;BME280;36264;51.296;-0.602;2023-04-07T06:26:43;101786.56;;;11.39;54.03
50356;BME280;36264;51.296;-0.602;2023-04-07T06:29:09;101789.16;;;11.39;54.33
50356;BME280;36264;51.296;-0.602;2023-04-07T06:31:34;101784.78;;;11.41;54.40
50356;BME280;36264;51.296;-0.602;2023-04-07T06:33:59;101789.88;;;11.47;54.39
50356;BME280;36264;51.296;-0.602;2023-04-07T06:36:26;101786.06;;;11.65;54.35
50356;BME280;36264;51.296;-0.602;2023-04-07T06:38:51;101782.72;;;11.58;54.24
50356;BME280;36264;51.296;-0.602;2023-04-07T06:41:17;101784.28;;;11.67;54.73
50356;BME280;36264;51.296;-0.602;2023-04-07T06:43:45;101789.28;;;11.78;55.43
50356;BME280;36264;51.296;-0.602;2023-04-07T06:46:10;101782.44;;;11.74;55.92
50356;BME280;36264;51.296;-0.602;2023-04-07T06:48:36;101780.47;;;11.85;55.79
50356;BME280;36264;51.296;-0.602;2023-04-07T06:51:01;101785.53;;;11.94;55.78
50356;BME280;36264;51.296;-0.602;2023-04-07T06:53:26;101790.50;;;12.05;55.95
50356;BME280;36264;51.296;-0.602;2023-04-07T06:56:02;101788.31;;;12.27;55.99
50356;BME280;36264;51.296;-0.602;2023-04-07T06:58:27;101791.38;;;12.06;56.21
50356;BME280;36264;51.296;-0.602;2023-04-07T07:00:52;101797.94;;;12.24;56.08
50356;BME280;36264;51.296;-0.602;2023-04-07T07:03:18;101792.75;;;12.24;56.20
50356;BME280;36264;51.296;-0.602;2023-04-07T07:05:43;101793.38;;;12.33;56.07
50356;BME280;36264;51.296;-0.602;2023-04-07T07:08:08;101797.47;;;12.47;55.69
50356;BME280;36264;51.296;-0.602;2023-04-07T07:10:34;101807.72;;;12.55;55.61
50356;BME280;36264;51.296;-0.602;2023-04-07T07:12:59;101815.53;;;12.55;55.92
50356;BME280;36264;51.296;-0.602;2023-04-07T07:15:25;101827.47;;;12.65;55.67
50356;BME280;36264;51.296;-0.602;2023-04-07T07:17:50;101822.84;;;12.76;55.31
50356;BME280;36264;51.296;-0.602;2023-04-07T07:20:15;101825.19;;;12.89;55.25
50356;BME280;36264;51.296;-0.602;2023-04-07T07:22:41;101826.00;;;12.91;55.26
50356;BME280;36264;51.296;-0.602;2023-04-07T07:25:07;101829.41;;;12.94;55.46
50356;BME280;36264;51.296;-0.602;2023-04-07T07:27:32;101825.78;;;13.00;55.29
50356;BME280;36264;51.296;-0.602;2023-04-07T07:29:57;101835.16;;;13.09;55.32
50356;BME280;36264;51.296;-0.602;2023-04-07T07:32:23;101831.44;;;13.17;55.41
50356;BME280;36264;51.296;-0.602;2023-04-07T07:34:48;101832.09;;;13.26;55.27
50356;BME280;36264;51.296;-0.602;2023-04-07T07:37:13;101832.75;;;13.35;55.30
50356;BME280;36264;51.296;-0.602;2023-04-07T07:39:40;101830.88;;;13.42;55.16
50356;BME280;36264;51.296;-0.602;2023-04-07T07:42:05;101829.69;;;13.54;54.95
50356;BME280;36264;51.296;-0.602;2023-04-07T07:44:30;101833.06;;;13.57;55.19
50356;BME280;36264;51.296;-0.602;2023-04-07T07:46:55;101835.56;;;13.62;55.44
50356;BME280;36264;51.296;-0.602;2023-04-07T07:49:21;101835.34;;;13.70;55.51
50356;BME280;36264;51.296;-0.602;2023-04-07T07:51:46;101830.00;;;13.74;55.51
50356;BME280;36264;51.296;-0.602;2023-04-07T07:54:12;101834.06;;;13.86;55.42
50356;BME280;36264;51.296;-0.602;2023-04-07T07:56:37;101832.34;;;13.85;55.32
50356;BME280;36264;51.296;-0.602;2023-04-07T07:59:03;101823.53;;;13.89;55.81
50356;BME280;36264;51.296;-0.602;2023-04-07T08:01:30;101830.38;;;13.93;55.74
50356;BME280;36264;51.296;-0.602;2023-04-07T08:03:56;101829.41;;;13.98;55.60
50356;BME280;36264;51.296;-0.602;2023-04-07T08:06:21;101832.69;;;14.04;55.63
50356;BME280;36264;51.296;-0.602;2023-04-07T08:08:46;101822.19;;;14.06;55.65
50356;BME280;36264;51.296;-0.602;2023-04-07T08:11:12;101826.28;;;14.14;55.83
50356;BME280;36264;51.296;-0.602;2023-04-07T08:13:37;101829.59;;;14.21;55.51
50356;BME280;36264;51.296;-0.602;2023-04-07T08:16:02;101836.03;;;14.39;55.36
50356;BME280;36264;51.296;-0.602;2023-04-07T08:18:28;101832.34;;;14.46;55.32
50356;BME280;36264;51.296;-0.602;2023-04-07T08:20:53;101835.09;;;14.42;55.84
50356;BME280;36264;51.296;-0.602;2023-04-07T08:23:19;101838.66;;;14.39;55.67
50356;BME280;36264;51.296;-0.602;2023-04-07T08:25:44;101840.28;;;14.43;55.39
50356;BME280;36264;51.296;-0.602;2023-04-07T08:28:09;101835.00;;;14.45;55.75
50356;BME280;36264;51.296;-0.602;2023-04-07T08:30:35;101833.66;;;14.61;55.23
50356;BME280;36264;51.296;-0.602;2023-04-07T08:33:00;101841.16;;;14.74;55.11
50356;BME280;36264;51.296;-0.602;2023-04-07T08:35:26;101844.88;;;14.65;55.51
50356;BME280;36264;51.296;-0.602;2023-04-07T08:37:51;101846.56;;;14.67;55.66
50356;BME280;36264;51.296;-0.602;2023-04-07T08:40:16;101852.41;;;14.76;55.58
50356;BME280;36264;51.296;-0.602;2023-04-07T08:42:45;101848.19;;;14.98;55.33
50356;BME280;36264;51.296;-0.602;2023-04-07T08:45:12;101846.66;;;14.93;55.42
50356;BME280;36264;51.296;-0.602;2023-04-07T08:47:39;101845.44;;;15.03;55.30
50356;BME280;36264;51.296;-0.602;2023-04-07T08:50:07;101840.84;;;15.10;55.50
50356;BME280;36264;51.296;-0.602;2023-04-07T08:52:39;101849.34;;;15.18;55.76
50356;BME280;36264;51.296;-0.602;2023-04-07T08:55:06;101845.69;;;15.22;55.62
50356;BME280;36264;51.296;-0.602;2023-04-07T08:57:33;101845.00;;;15.17;55.39
50356;BME280;36264;51.296;-0.602;2023-04-07T09:00:00;101844.69;;;15.26;55.30
50356;BME280;36264;51.296;-0.602;2023-04-07T09:02:30;101845.88;;;15.43;54.79
50356;BME280;36264;51.296;-0.602;2023-04-07T09:04:55;101846.50;;;15.24;55.13
50356;BME280;36264;51.296;-0.602;2023-04-07T09:07:21;101837.50;;;15.33;55.09
50356;BME280;36264;51.296;-0.602;2023-04-07T09:09:46;101841.78;;;15.35;55.34
50356;BME280;36264;51.296;-0.602;2023-04-07T09:12:12;101844.50;;;15.32;55.19
50356;BME280;36264;51.296;-0.602;2023-04-07T09:14:37;101846.16;;;15.60;55.15
50356;BME280;36264;51.296;-0.602;2023-04-07T09:17:03;101837.41;;;15.61;55.09
50356;BME280;36264;51.296;-0.602;2023-04-07T09:19:29;101843.22;;;15.69;55.17
50356;BME280;36264;51.296;-0.602;2023-04-07T09:21:55;101856.53;;;15.63;54.54
50356;BME280;36264;51.296;-0.602;2023-04-07T09:24:25;101838.97;;;15.92;54.61
50356;BME280;36264;51.296;-0.602;2023-04-07T09:27:10;101841.47;;;15.95;53.99
50356;BME280;36264;51.296;-0.602;2023-04-07T09:29:36;101842.88;;;15.80;54.62
50356;BME280;36264;51.296;-0.602;2023-04-07T09:32:02;101849.97;;;15.78;54.65
50356;BME280;36264;51.296;-0.602;2023-04-07T09:34:30;101852.06;;;15.92;54.30
50356;BME280;36264;51.296;-0.602;2023-04-07T09:36:55;101845.03;;;15.94;54.08
50356;BME280;36264;51.296;-0.602;2023-04-07T09:39:22;101849.81;;;15.81;54.69
50356;BME280;36264;51.296;-0.602;2023-04-07T09:41:47;101844.84;;;15.73;55.04
50356;BME280;36264;51.296;-0.602;2023-04-07T09:44:13;101849.16;;;15.74;55.29
50356;BME280;36264;51.296;-0.602;2023-04-07T09:46:50;101857.34;;;15.90;54.93
50356;BME280;36264;51.296;-0.602;2023-04-07T09:49:16;101857.22;;;15.68;54.96
50356;BME280;36264;51.296;-0.602;2023-04-07T09:51:58;101852.31;;;16.09;53.85
50356;BME280;36264;51.296;-0.602;2023-04-07T09:54:37;101851.00;;;16.21;53.78
50356;BME280;36264;51.296;-0.602;2023-04-07T09:57:05;101848.00;;;16.08;54.94
50356;BME280;36264;51.296;-0.602;2023-04-07T09:59:32;101854.41;;;16.00;54.22
50356;BME280;36264;51.296;-0.602;2023-04-07T10:01:58;101845.94;;;16.17;53.75
50356;BME280;36264;51.296;-0.602;2023-04-07T10:04:24;101852.19;;;16.12;53.96
50356;BME280;36264;51.296;-0.602;2023-04-07T10:06:52;101854.81;;;16.12;52.86
50356;BME280;36264;51.296;-0.602;2023-04-07T10:09:19;101851.06;;;16.20;53.51
50356;BME280;36264;51.296;-0.602;2023-04-07T10:11:44;101851.19;;;16.17;54.06
50356;BME280;36264;51.296;-0.602;2023-04-07T10:14:11;101854.44;;;16.23;54.10
50356;BME280;36264;51.296;-0.602;2023-04-07T10:16:37;101853.84;;;16.39;54.21
50356;BME280;36264;51.296;-0.602;2023-04-07T10:19:03;101843.03;;;16.48;54.20
50356;BME280;36264;51.296;-0.602;2023-04-07T10:21:31;101839.72;;;16.65;54.10
50356;BME280;36264;51.296;-0.602;2023-04-07T10:26:33;101844.66;;;16.96;53.88
50356;BME280;36264;51.296;-0.602;2023-04-07T10:29:04;101837.00;;;17.12;53.49
50356;BME280;36264;51.296;-0.602;2023-04-07T10:31:31;101845.25;;;17.03;53.54
50356;BME280;36264;51.296;-0.602;2023-04-07T10:33:56;101835.63;;;17.04;53.46
50356;BME280;36264;51.296;-0.602;2023-04-07T10:36:22;101837.38;;;17.03;53.18
50356;BME280;36264;51.296;-0.602;2023-04-07T10:41:35;101842.78;;;17.20;52.85
50356;BME280;36264;51.296;-0.602;2023-04-07T10:44:04;101842.00;;;17.18;53.11
50356;BME280;36264;51.296;-0.602;2023-04-07T10:49:15;101837.59;;;17.19;52.96
50356;BME280;36264;51.296;-0.602;2023-04-07T10:51:41;101836.91;;;17.36;52.96
50356;BME280;36264;51.296;-0.602;2023-04-07T10:54:27;101836.06;;;17.56;51.65
50356;BME280;36264;51.296;-0.602;2023-04-07T10:59:27;101826.66;;;17.50;52.54
50356;BME280;36264;51.296;-0.602;2023-04-07T11:04:37;101830.53;;;17.83;52.63
50356;BME280;36264;51.296;-0.602;2023-04-07T11:07:03;101835.72;;;17.84;52.62
50356;BME280;36264;51.296;-0.602;2023-04-07T11:09:28;101827.66;;;17.87;51.32
50356;BME280;36264;51.296;-0.602;2023-04-07T11:11:54;101828.38;;;17.92;51.42
50356;BME280;36264;51.296;-0.602;2023-04-07T11:14:31;101822.41;;;18.27;51.14
50356;BME280;36264;51.296;-0.602;2023-04-07T11:16:58;101823.28;;;18.27;51.68
50356;BME280;36264;51.296;-0.602;2023-04-07T11:19:23;101825.91;;;18.27;51.60
50356;BME280;36264;51.296;-0.602;2023-04-07T11:21:49;101834.06;;;18.21;51.59
50356;BME280;36264;51.296;-0.602;2023-04-07T11:24:36;101827.66;;;18.46;48.28
50356;BME280;36264;51.296;-0.602;2023-04-07T11:27:05;101831.78;;;18.14;51.14
50356;BME280;36264;51.296;-0.602;2023-04-07T11:29:32;101828.13;;;18.18;50.70
50356;BME280;36264;51.296;-0.602;2023-04-07T11:31:59;101829.09;;;18.15;50.79
50356;BME280;36264;51.296;-0.602;2023-04-07T11:34:29;101833.09;;;18.24;50.64
50356;BME280;36264;51.296;-0.602;2023-04-07T11:36:55;101829.22;;;18.12;50.53
50356;BME280;36264;51.296;-0.602;2023-04-07T11:39:25;101835.13;;;18.17;49.90
50356;BME280;36264;51.296;-0.602;2023-04-07T11:41:55;101834.34;;;18.15;49.96
50356;BME280;36264;51.296;-0.602;2023-04-07T11:44:22;101829.50;;;18.06;50.18
50356;BME280;36264;51.296;-0.602;2023-04-07T11:47:00;101829.72;;;18.20;49.44
50356;BME280;36264;51.296;-0.602;2023-04-07T11:49:27;101832.47;;;17.98;50.25
50356;BME280;36264;51.296;-0.602;2023-04-07T11:52:04;101823.97;;;18.12;49.29
50356;BME280;36264;51.296;-0.602;2023-04-07T11:54:45;101820.44;;;18.13;49.70
50356;BME280;36264;51.296;-0.602;2023-04-07T11:57:11;101819.19;;;18.01;49.77
50356;BME280;36264;51.296;-0.602;2023-04-07T11:59:37;101823.69;;;18.18;49.74
50356;BME280;36264;51.296;-0.602;2023-04-07T12:02:03;101818.38;;;18.39;49.85
50356;BME280;36264;51.296;-0.602;2023-04-07T12:04:28;101832.06;;;18.45;49.23
50356;BME280;36264;51.296;-0.602;2023-04-07T12:07:06;101826.44;;;18.72;46.81
50356;BME280;36264;51.296;-0.602;2023-04-07T12:09:32;101825.16;;;18.62;48.74
50356;BME280;36264;51.296;-0.602;2023-04-07T12:12:01;101824.22;;;18.63;48.90
50356;BME280;36264;51.296;-0.602;2023-04-07T12:14:27;101821.41;;;18.49;48.81
50356;BME280;36264;51.296;-0.602;2023-04-07T12:16:53;101820.72;;;18.45;48.71
50356;BME280;36264;51.296;-0.602;2023-04-07T12:19:24;101826.53;;;18.52;48.78
50356;BME280;36264;51.296;-0.602;2023-04-07T12:21:51;101820.84;;;18.42;48.39
50356;BME280;36264;51.296;-0.602;2023-04-07T12:24:16;101820.06;;;18.59;48.15
50356;BME280;36264;51.296;-0.602;2023-04-07T12:26:42;101817.84;;;18.69;47.79
50356;BME280;36264;51.296;-0.602;2023-04-07T12:29:07;101822.47;;;18.81;48.31
50356;BME280;36264;51.296;-0.602;2023-04-07T12:31:33;101814.69;;;18.98;48.41
50356;BME280;36264;51.296;-0.602;2023-04-07T12:33:59;101818.25;;;19.15;48.16
50356;BME280;36264;51.296;-0.602;2023-04-07T12:36:25;101829.53;;;19.34;46.54
50356;BME280;36264;51.296;-0.602;2023-04-07T12:38:51;101823.03;;;19.24;46.68
50356;BME280;36264;51.296;-0.602;2023-04-07T12:41:17;101824.56;;;19.11;46.19
50356;BME280;36264;51.296;-0.602;2023-04-07T12:43:43;101820.56;;;19.04;46.60
50356;BME280;36264;51.296;-0.602;2023-04-07T12:46:08;101816.44;;;19.15;46.50
50356;BME280;36264;51.296;-0.602;2023-04-07T12:48:33;101821.25;;;19.25;46.44
50356;BME280;36264;51.296;-0.602;2023-04-07T12:50:59;101814.84;;;19.30;46.27
50356;BME280;36264;51.296;-0.602;2023-04-07T12:53:25;101815.44;;;19.35;46.20
50356;BME280;36264;51.296;-0.602;2023-04-07T12:55:51;101819.06;;;19.50;45.97
50356;BME280;36264;51.296;-0.602;2023-04-07T12:58:16;101811.94;;;19.70;46.06
50356;BME280;36264;51.296;-0.602;2023-04-07T13:00:43;101810.13;;;19.88;45.64